Time;durP1;ratioP1;P1;durP2;ratioP2;P2;SDS_P1;SDS_P2;PMS_P1;PMS_P2;Temp;Humidity;BMP_temperature;BMP_pressure;BME280_temperature;BME280_humidity;BME280_pressure;Samples;Min_cycle;Max_cycle;Signal;HPM_P1;HPM_P2
2021/05/30 00:00:16;;;;;;;5.38;2.90;;;;;;;;;;5012527;28;20430;-96
2021/05/30 00:02:44;;;;;;;2.65;2.45;;;;;;;;;;5011806;28;20471;-96
2021/05/30 00:05:11;;;;;;;2.58;2.38;;;;;;;;;;5021737;28;20391;-96
2021/05/30 00:07:39;;;;;;;4.45;2.70;;;;;;;;;;5011317;28;20407;-96
2021/05/30 00:10:07;;;;;;;3.13;2.40;;;;;;;;;;5019175;28;20431;-96
2021/05/30 00:12:34;;;;;;;2.80;2.60;;;;;;;;;;5018662;28;20456;-96
2021/05/30 00:15:01;;;;;;;2.95;2.55;;;;;;;;;;5016003;28;20419;-96
2021/05/30 00:17:28;;;;;;;2.88;2.67;;;;;;;;;;5013501;28;20416;-96
2021/05/30 00:19:56;;;;;;;2.83;2.63;;;;;;;;;;5014650;28;20419;-96
2021/05/30 00:22:23;;;;;;;3.27;2.73;;;;;;;;;;5014596;28;20811;-96
2021/05/30 00:24:50;;;;;;;3.00;2.60;;;;;;;;;;5021841;28;20400;-96
2021/05/30 00:27:17;;;;;;;3.92;3.10;;;;;;;;;;5011022;28;21173;-96
2021/05/30 00:29:44;;;;;;;4.17;2.90;;;;;;;;;;5010167;28;20425;-96
2021/05/30 00:32:11;;;;;;;3.25;2.90;;;;;;;;;;5017811;28;20472;-96
2021/05/30 00:34:38;;;;;;;3.60;3.22;;;;;;;;;;5008720;28;20448;-96
2021/05/30 00:37:06;;;;;;;3.80;3.40;;;;;;;;;;5009180;28;20598;-96
2021/05/30 00:42:40;;;;;;;4.10;3.70;;;;;;;;;;5014390;28;20847;-96
2021/05/30 00:45:11;;;;;;;4.25;3.40;;;;;;;;;;5011796;28;20417;-96
2021/05/30 00:47:45;;;;;;;4.88;4.07;;;;;;;;;;5014375;28;20460;-96
2021/05/30 00:53:37;;;;;;;3.70;3.40;;;;;;;;;;4981131;28;20405;-96
2021/05/30 00:56:06;;;;;;;4.15;3.78;;;;;;;;;;5012324;28;20499;-96
2021/05/30 00:58:33;;;;;;;4.13;3.75;;;;;;;;;;5012355;28;21107;-96
2021/05/30 01:01:00;;;;;;;4.05;3.65;;;;;;;;;;4996349;28;20404;-96
2021/05/30 01:03:32;;;;;;;4.40;4.00;;;;;;;;;;5009713;28;20430;-96
2021/05/30 01:09:32;;;;;;;4.03;3.63;;;;;;;;;;5012869;28;20487;-96
2021/05/30 01:12:04;;;;;;;4.53;3.85;;;;;;;;;;4998232;28;20421;-96
2021/05/30 01:14:31;;;;;;;4.63;3.72;;;;;;;;;;5008255;28;20428;-96
2021/05/30 01:16:58;;;;;;;4.20;3.80;;;;;;;;;;5017534;28;20399;-96
2021/05/30 01:19:28;;;;;;;3.80;3.50;;;;;;;;;;5009541;28;20499;-96
2021/05/30 01:21:59;;;;;;;4.45;3.80;;;;;;;;;;5011694;28;20405;-96
2021/05/30 01:24:27;;;;;;;3.95;3.58;;;;;;;;;;5016300;28;20436;-96
2021/05/30 01:26:54;;;;;;;4.18;3.78;;;;;;;;;;5018873;28;20446;-96
2021/05/30 01:29:21;;;;;;;4.07;3.78;;;;;;;;;;5021955;28;20420;-96
2021/05/30 01:31:48;;;;;;;3.97;3.60;;;;;;;;;;5019124;28;20460;-96
2021/05/30 01:34:15;;;;;;;4.10;3.70;;;;;;;;;;5019269;28;20413;-96
2021/05/30 01:36:42;;;;;;;4.20;3.80;;;;;;;;;;5020597;28;20408;-96
2021/05/30 01:39:09;;;;;;;4.05;3.75;;;;;;;;;;5006275;28;20427;-96
2021/05/30 01:41:37;;;;;;;3.90;3.60;;;;;;;;;;5012767;28;20408;-96
2021/05/30 01:44:04;;;;;;;4.00;3.70;;;;;;;;;;5015052;28;20375;-96
2021/05/30 01:46:31;;;;;;;5.47;4.45;;;;;;;;;;5017645;28;20409;-96
2021/05/30 01:48:58;;;;;;;4.40;4.00;;;;;;;;;;5017446;28;20459;-96
2021/05/30 01:51:25;;;;;;;4.65;4.20;;;;;;;;;;5020291;28;20465;-96
2021/05/30 01:53:54;;;;;;;4.97;4.57;;;;;;;;;;5009913;28;20795;-96
2021/05/30 01:59:11;;;;;;;4.72;4.32;;;;;;;;;;5016218;28;20395;-96
2021/05/30 02:01:38;;;;;;;4.68;4.28;;;;;;;;;;5014568;28;20419;-96
2021/05/30 02:04:08;;;;;;;5.93;4.60;;;;;;;;;;5021936;28;20468;-96
2021/05/30 02:06:35;;;;;;;4.72;4.30;;;;;;;;;;5011323;28;20396;-96
2021/05/30 02:09:03;;;;;;;5.37;4.73;;;;;;;;;;5004431;28;20454;-96
2021/05/30 02:11:32;;;;;;;4.88;4.28;;;;;;;;;;5021908;28;20391;-96
2021/05/30 02:14:01;;;;;;;4.93;4.50;;;;;;;;;;5015393;28;20523;-96
2021/05/30 02:16:29;;;;;;;5.00;4.50;;;;;;;;;;5021050;28;20486;-96
2021/05/30 02:18:56;;;;;;;5.15;4.65;;;;;;;;;;5025788;28;20426;-96
2021/05/30 02:21:23;;;;;;;5.17;4.47;;;;;;;;;;5025963;28;20426;-96
2021/05/30 02:23:55;;;;;;;5.90;4.50;;;;;;;;;;5019787;28;20408;-96
2021/05/30 02:26:24;;;;;;;5.15;4.65;;;;;;;;;;5018425;28;20389;-96
2021/05/30 02:28:51;;;;;;;5.20;4.70;;;;;;;;;;5027609;28;20958;-96
2021/05/30 02:31:18;;;;;;;5.15;4.65;;;;;;;;;;5022686;28;20407;-96
2021/05/30 02:33:46;;;;;;;4.97;4.55;;;;;;;;;;5017236;28;20449;-96
2021/05/30 02:36:13;;;;;;;5.82;4.90;;;;;;;;;;5012763;28;20476;-96
2021/05/30 02:38:40;;;;;;;5.20;4.70;;;;;;;;;;5017427;28;20511;-96
2021/05/30 02:41:07;;;;;;;5.10;4.60;;;;;;;;;;5019222;28;20414;-96
2021/05/30 02:43:34;;;;;;;5.13;4.57;;;;;;;;;;5026315;28;20408;-96
2021/05/30 02:46:04;;;;;;;5.20;4.80;;;;;;;;;;5028004;28;20505;-96
2021/05/30 02:48:31;;;;;;;5.93;5.32;;;;;;;;;;5031473;28;20400;-96
2021/05/30 02:50:59;;;;;;;5.72;5.00;;;;;;;;;;5029308;28;20406;-96
2021/05/30 02:53:27;;;;;;;5.85;5.22;;;;;;;;;;5014796;28;20439;-96
2021/05/30 02:55:54;;;;;;;7.60;5.10;;;;;;;;;;5021460;28;20476;-96
2021/05/30 02:58:21;;;;;;;5.57;5.07;;;;;;;;;;5014724;28;20424;-96
2021/05/30 03:00:51;;;;;;;5.60;4.80;;;;;;;;;;5012594;28;20403;-96
2021/05/30 03:03:21;;;;;;;5.30;4.80;;;;;;;;;;5012979;28;20468;-96
2021/05/30 03:05:48;;;;;;;5.18;4.78;;;;;;;;;;5010736;28;20465;-96
2021/05/30 03:08:16;;;;;;;5.55;5.00;;;;;;;;;;5013000;28;20428;-96
2021/05/30 03:10:43;;;;;;;5.45;4.95;;;;;;;;;;5017020;28;20408;-96
2021/05/30 03:13:10;;;;;;;6.15;5.03;;;;;;;;;;5011743;28;20385;-96
2021/05/30 03:15:38;;;;;;;5.55;4.68;;;;;;;;;;5019325;28;20427;-96
2021/05/30 03:18:08;;;;;;;4.93;4.47;;;;;;;;;;5003024;28;20405;-96
2021/05/30 03:20:35;;;;;;;6.43;4.85;;;;;;;;;;4991708;28;20404;-96
2021/05/30 03:23:02;;;;;;;5.60;4.30;;;;;;;;;;4994948;28;20402;-96
2021/05/30 03:25:30;;;;;;;5.07;4.55;;;;;;;;;;5007123;28;20420;-96
2021/05/30 03:27:57;;;;;;;4.95;4.45;;;;;;;;;;5010674;28;20401;-96
2021/05/30 03:30:24;;;;;;;7.82;4.60;;;;;;;;;;5021854;28;20477;-96
2021/05/30 03:32:54;;;;;;;5.35;4.25;;;;;;;;;;5020414;28;20404;-96
2021/05/30 03:35:21;;;;;;;6.28;4.28;;;;;;;;;;5011881;28;20468;-96
2021/05/30 03:37:48;;;;;;;4.30;3.90;;;;;;;;;;5016108;28;20396;-95
2021/05/30 03:40:28;;;;;;;4.10;3.65;;;;;;;;;;5028441;28;20380;-96
2021/05/30 03:42:56;;;;;;;4.15;3.70;;;;;;;;;;5017465;28;20394;-96
2021/05/30 03:45:24;;;;;;;4.30;3.90;;;;;;;;;;5010760;28;20464;-96
2021/05/30 03:47:51;;;;;;;4.93;3.90;;;;;;;;;;5012145;28;20497;-96
2021/05/30 03:50:19;;;;;;;4.80;4.28;;;;;;;;;;5015621;28;20482;-96
2021/05/30 03:52:47;;;;;;;5.45;4.10;;;;;;;;;;5016319;28;20407;-96
2021/05/30 03:55:17;;;;;;;5.00;4.28;;;;;;;;;;5006178;28;20572;-96
2021/05/30 03:57:44;;;;;;;5.30;4.40;;;;;;;;;;4999394;28;20428;-96
2021/05/30 04:00:16;;;;;;;5.70;4.75;;;;;;;;;;4998752;28;20405;-96
2021/05/30 04:02:42;;;;;;;7.30;5.32;;;;;;;;;;5028356;28;20417;-96
2021/05/30 04:05:10;;;;;;;5.88;5.18;;;;;;;;;;5031829;22;20476;-79
2021/05/30 04:07:36;;;;;;;5.90;5.32;;;;;;;;;;5017473;28;20407;-80
2021/05/30 04:10:07;;;;;;;8.27;6.18;;;;;;;;;;5012725;28;20405;-80
2021/05/30 04:12:33;;;;;;;6.97;5.47;;;;;;;;;;5011562;28;20413;-79
2021/05/30 04:15:00;;;;;;;6.22;5.40;;;;;;;;;;5009884;28;20421;-79
2021/05/30 04:17:27;;;;;;;6.10;5.53;;;;;;;;;;5012882;28;20892;-79
2021/05/30 04:19:53;;;;;;;5.70;5.30;;;;;;;;;;5012801;28;20419;-81
2021/05/30 04:22:20;;;;;;;6.07;5.57;;;;;;;;;;5011839;28;20403;-81
2021/05/30 04:24:46;;;;;;;5.93;5.43;;;;;;;;;;5016667;28;20482;-79
2021/05/30 04:27:13;;;;;;;7.72;5.80;;;;;;;;;;5015174;28;20413;-81
2021/05/30 04:29:40;;;;;;;6.30;5.45;;;;;;;;;;5017058;28;20401;-81
2021/05/30 04:32:10;;;;;;;6.20;5.03;;;;;;;;;;5020333;28;20414;-81
2021/05/30 04:34:37;;;;;;;5.50;5.00;;;;;;;;;;5016059;28;20487;-81
2021/05/30 04:37:04;;;;;;;5.20;4.70;;;;;;;;;;5018777;28;20936;-80
2021/05/30 04:39:32;;;;;;;5.40;4.90;;;;;;;;;;5013885;28;20395;-81
2021/05/30 04:41:58;;;;;;;5.68;4.88;;;;;;;;;;5013951;28;20411;-81
2021/05/30 04:44:25;;;;;;;4.97;4.57;;;;;;;;;;5015905;28;20412;-81
2021/05/30 04:46:51;;;;;;;4.80;4.40;;;;;;;;;;5016641;28;20403;-81
2021/05/30 04:49:18;;;;;;;4.90;4.50;;;;;;;;;;5013764;28;20408;-81
2021/05/30 04:51:46;;;;;;;4.85;4.35;;;;;;;;;;5018583;28;20555;-81
2021/05/30 04:54:12;;;;;;;5.05;4.45;;;;;;;;;;5012960;28;20417;-81
2021/05/30 04:56:39;;;;;;;5.47;4.35;;;;;;;;;;5020379;28;20411;-80
2021/05/30 04:59:05;;;;;;;5.43;4.38;;;;;;;;;;5018225;28;20766;-80
2021/05/30 05:01:32;;;;;;;4.30;4.00;;;;;;;;;;5019705;28;20417;-81
2021/05/30 05:03:58;;;;;;;4.50;4.10;;;;;;;;;;5019562;28;20809;-81
2021/05/30 05:06:25;;;;;;;5.20;4.25;;;;;;;;;;5019882;28;20401;-81
2021/05/30 05:08:53;;;;;;;4.93;4.07;;;;;;;;;;5018727;28;20407;-81
2021/05/30 05:11:20;;;;;;;4.38;4.07;;;;;;;;;;5017021;28;20416;-81
2021/05/30 05:13:47;;;;;;;4.80;4.40;;;;;;;;;;5021346;28;20433;-81
2021/05/30 05:16:13;;;;;;;5.28;4.47;;;;;;;;;;5020031;28;20425;-81
2021/05/30 05:18:40;;;;;;;5.07;4.40;;;;;;;;;;5018435;28;20407;-81
2021/05/30 05:21:06;;;;;;;5.47;4.75;;;;;;;;;;5018353;28;20410;-81
2021/05/30 05:23:33;;;;;;;5.70;4.90;;;;;;;;;;5014051;28;20423;-81
2021/05/30 05:26:03;;;;;;;5.28;4.40;;;;;;;;;;5019949;28;20433;-81
2021/05/30 05:28:30;;;;;;;5.68;4.63;;;;;;;;;;5020349;28;20393;-81
2021/05/30 05:30:57;;;;;;;5.10;4.70;;;;;;;;;;5020326;28;20415;-81
2021/05/30 05:33:24;;;;;;;5.20;4.70;;;;;;;;;;5019910;28;20829;-81
2021/05/30 05:35:50;;;;;;;5.70;4.30;;;;;;;;;;5015960;28;20841;-81
2021/05/30 05:38:17;;;;;;;5.07;4.30;;;;;;;;;;5020134;28;20397;-81
2021/05/30 05:40:46;;;;;;;4.60;4.20;;;;;;;;;;5014211;28;20401;-81
2021/05/30 05:43:13;;;;;;;5.03;3.33;;;;;;;;;;5014966;28;20580;-81
2021/05/30 05:45:40;;;;;;;3.80;3.50;;;;;;;;;;5016138;28;20401;-81
2021/05/30 05:48:10;;;;;;;3.00;2.80;;;;;;;;;;5017364;28;20809;-81
2021/05/30 05:50:37;;;;;;;3.35;3.05;;;;;;;;;;5019255;28;20409;-81
2021/05/30 05:53:04;;;;;;;4.63;2.85;;;;;;;;;;5016485;28;20420;-81
2021/05/30 05:55:30;;;;;;;3.45;3.15;;;;;;;;;;5020853;28;20421;-82
2021/05/30 05:57:56;;;;;;;3.30;3.00;;;;;;;;;;5017365;28;20415;-81
2021/05/30 06:00:24;;;;;;;3.50;3.20;;;;;;;;;;5016142;28;20410;-81
2021/05/30 06:02:51;;;;;;;3.55;2.58;;;;;;;;;;5015152;28;20433;-81
2021/05/30 06:05:19;;;;;;;2.70;2.10;;;;;;;;;;5018145;28;22228;-81
2021/05/30 06:07:46;;;;;;;1.90;1.80;;;;;;;;;;5014408;28;20401;-81
2021/05/30 06:10:14;;;;;;;1.98;1.52;;;;;;;;;;5016490;28;20422;-81
2021/05/30 06:12:41;;;;;;;1.40;1.30;;;;;;;;;;5017093;28;20429;-81
2021/05/30 06:15:10;;;;;;;2.20;1.70;;;;;;;;;;5014359;28;20751;-81
2021/05/30 06:17:37;;;;;;;2.80;2.13;;;;;;;;;;5016738;28;21137;-80
2021/05/30 06:20:05;;;;;;;1.77;1.38;;;;;;;;;;5020295;28;20421;-80
2021/05/30 06:22:32;;;;;;;1.40;1.30;;;;;;;;;;5018712;28;20405;-81
2021/05/30 06:25:00;;;;;;;1.48;1.30;;;;;;;;;;5019690;28;20405;-80
2021/05/30 06:27:26;;;;;;;1.88;1.20;;;;;;;;;;5018050;28;20407;-80
2021/05/30 06:29:53;;;;;;;1.40;1.30;;;;;;;;;;5019584;28;20755;-80
2021/05/30 06:32:19;;;;;;;1.70;1.20;;;;;;;;;;5019900;28;20401;-80
2021/05/30 06:34:46;;;;;;;1.48;1.38;;;;;;;;;;5018600;28;20432;-80
2021/05/30 06:37:13;;;;;;;1.50;1.30;;;;;;;;;;5015632;28;20490;-80
2021/05/30 06:39:39;;;;;;;1.50;1.13;;;;;;;;;;5018884;28;20397;-80
2021/05/30 06:42:06;;;;;;;1.60;1.50;;;;;;;;;;5019676;28;20397;-79
2021/05/30 06:44:33;;;;;;;1.60;1.50;;;;;;;;;;5019312;28;20403;-79
2021/05/30 06:46:59;;;;;;;1.90;1.40;;;;;;;;;;5018304;28;20775;-79
2021/05/30 06:49:26;;;;;;;1.73;1.60;;;;;;;;;;5017325;28;20402;-79
2021/05/30 06:51:53;;;;;;;2.00;1.60;;;;;;;;;;5017471;28;20816;-79
2021/05/30 06:54:20;;;;;;;1.63;1.52;;;;;;;;;;5017885;28;20408;-79
2021/05/30 06:56:46;;;;;;;2.47;1.80;;;;;;;;;;5016300;28;20943;-79
2021/05/30 06:59:12;;;;;;;1.77;1.63;;;;;;;;;;5015872;28;20407;-79
2021/05/30 07:01:39;;;;;;;1.80;1.70;;;;;;;;;;5015787;28;20932;-79
2021/05/30 07:04:05;;;;;;;2.00;1.70;;;;;;;;;;5017667;28;20517;-78
2021/05/30 07:06:32;;;;;;;1.55;1.45;;;;;;;;;;5015845;28;20408;-80
2021/05/30 07:08:59;;;;;;;3.10;1.60;;;;;;;;;;5017359;28;20472;-80
2021/05/30 07:11:26;;;;;;;1.63;1.50;;;;;;;;;;5016883;28;20406;-78
2021/05/30 07:13:52;;;;;;;2.03;1.50;;;;;;;;;;5015808;28;20418;-80
2021/05/30 07:16:19;;;;;;;1.70;1.60;;;;;;;;;;5019596;28;20897;-80
2021/05/30 07:18:45;;;;;;;2.20;1.60;;;;;;;;;;5017856;28;20456;-80
2021/05/30 07:21:12;;;;;;;1.40;1.30;;;;;;;;;;5017771;28;20401;-79
2021/05/30 07:23:38;;;;;;;1.70;1.60;;;;;;;;;;5012089;28;20489;-79
2021/05/30 07:26:06;;;;;;;4.40;1.63;;;;;;;;;;5014686;28;20411;-78
2021/05/30 07:28:32;;;;;;;2.00;1.27;;;;;;;;;;5016733;28;20924;-79
2021/05/30 07:30:58;;;;;;;1.75;1.65;;;;;;;;;;5013924;28;20403;-79
2021/05/30 07:33:25;;;;;;;1.70;1.60;;;;;;;;;;5017471;28;20890;-79
2021/05/30 07:35:51;;;;;;;1.40;1.30;;;;;;;;;;5016751;28;20425;-78
2021/05/30 07:38:18;;;;;;;1.65;1.52;;;;;;;;;;5015989;28;20401;-79
2021/05/30 07:40:44;;;;;;;1.70;1.60;;;;;;;;;;5015040;28;20398;-79
2021/05/30 07:43:12;;;;;;;1.60;1.50;;;;;;;;;;5017678;28;20409;-80
2021/05/30 07:45:38;;;;;;;1.58;1.48;;;;;;;;;;5016216;28;20395;-79
2021/05/30 07:48:05;;;;;;;1.40;1.30;;;;;;;;;;5017715;28;20766;-80
2021/05/30 07:50:32;;;;;;;1.38;1.27;;;;;;;;;;5016997;28;20784;-79
2021/05/30 07:52:58;;;;;;;1.80;1.20;;;;;;;;;;5016464;28;20480;-79
2021/05/30 07:55:27;;;;;;;1.35;1.20;;;;;;;;;;5017133;28;20421;-79
2021/05/30 07:57:54;;;;;;;0.90;0.90;;;;;;;;;;5017144;28;20408;-80
2021/05/30 08:00:23;;;;;;;1.10;1.00;;;;;;;;;;5016676;28;20405;-80
2021/05/30 08:02:50;;;;;;;1.73;1.30;;;;;;;;;;5013212;28;20778;-81
2021/05/30 08:05:19;;;;;;;1.15;1.08;;;;;;;;;;5015606;28;20960;-80
2021/05/30 08:07:46;;;;;;;1.40;1.30;;;;;;;;;;5018380;28;20405;-80
2021/05/30 08:10:13;;;;;;;2.80;1.20;;;;;;;;;;5019439;28;20413;-81
2021/05/30 08:12:44;;;;;;;2.65;0.90;;;;;;;;;;5018656;28;20846;-80
2021/05/30 08:15:11;;;;;;;1.50;1.20;;;;;;;;;;5018865;28;20425;-81
2021/05/30 08:17:40;;;;;;;1.20;1.10;;;;;;;;;;5021507;28;20463;-81
2021/05/30 08:20:09;;;;;;;1.27;1.17;;;;;;;;;;5018335;28;20404;-80
2021/05/30 08:22:35;;;;;;;1.75;1.20;;;;;;;;;;5021542;28;20523;-81
2021/05/30 08:25:03;;;;;;;2.00;1.20;;;;;;;;;;5018311;28;20397;-82
2021/05/30 08:27:30;;;;;;;1.23;1.13;;;;;;;;;;5020618;28;20401;-81
2021/05/30 08:29:56;;;;;;;1.33;1.15;;;;;;;;;;5017957;28;20428;-80
2021/05/30 08:32:24;;;;;;;2.40;1.00;;;;;;;;;;5019763;28;20409;-81
2021/05/30 08:34:51;;;;;;;1.42;1.20;;;;;;;;;;5021343;28;20462;-81
2021/05/30 08:37:18;;;;;;;1.80;1.30;;;;;;;;;;5022090;28;21414;-81
2021/05/30 08:39:45;;;;;;;1.67;1.42;;;;;;;;;;5018378;28;20898;-81
2021/05/30 08:42:12;;;;;;;1.58;1.20;;;;;;;;;;5020634;28;20401;-81
2021/05/30 08:44:38;;;;;;;1.60;0.90;;;;;;;;;;5021693;28;20420;-80
2021/05/30 08:47:05;;;;;;;1.10;1.10;;;;;;;;;;5022297;28;20757;-80
2021/05/30 08:49:31;;;;;;;1.20;1.10;;;;;;;;;;5021303;28;20467;-81
2021/05/30 08:51:59;;;;;;;0.90;0.90;;;;;;;;;;5022998;28;20409;-81
2021/05/30 08:54:25;;;;;;;1.25;1.20;;;;;;;;;;5023162;28;20491;-82
2021/05/30 08:56:52;;;;;;;2.58;1.30;;;;;;;;;;5021112;28;20401;-81
2021/05/30 08:59:27;;;;;;;1.05;0.95;;;;;;;;;;5009111;28;20419;-82
2021/05/30 09:01:55;;;;;;;1.30;1.00;;;;;;;;;;5015391;28;20416;-79
2021/05/30 09:04:30;;;;;;;1.35;1.10;;;;;;;;;;5021085;28;20467;-80
2021/05/30 09:06:57;;;;;;;1.20;1.10;;;;;;;;;;5020760;28;20409;-82
2021/05/30 09:09:24;;;;;;;1.23;1.10;;;;;;;;;;5019872;28;20535;-81
2021/05/30 09:11:52;;;;;;;1.75;1.10;;;;;;;;;;5013913;28;20424;-82
2021/05/30 09:14:24;;;;;;;1.10;1.00;;;;;;;;;;5016070;28;20408;-81
2021/05/30 09:16:59;;;;;;;1.58;1.38;;;;;;;;;;5025037;28;20417;-84
2021/05/30 09:19:40;;;;;;;1.88;1.30;;;;;;;;;;5027765;28;20401;-81
2021/05/30 09:22:31;;;;;;;1.30;1.20;;;;;;;;;;5014722;28;20445;-78
2021/05/30 09:25:14;;;;;;;1.30;1.20;;;;;;;;;;5016074;28;20911;-77
2021/05/30 09:27:53;;;;;;;1.50;1.10;;;;;;;;;;5016042;28;20778;-81
2021/05/30 09:30:23;;;;;;;1.30;1.20;;;;;;;;;;5019495;28;21293;-85
2021/05/30 09:32:54;;;;;;;1.25;1.15;;;;;;;;;;5017665;28;20496;-85
2021/05/30 09:35:23;;;;;;;1.30;1.20;;;;;;;;;;5015394;28;20421;-85
2021/05/30 09:37:58;;;;;;;2.05;1.10;;;;;;;;;;5017896;28;20471;-85
2021/05/30 09:40:37;;;;;;;1.48;1.30;;;;;;;;;;5013847;28;20467;-86
2021/05/30 09:43:09;;;;;;;1.40;1.30;;;;;;;;;;4997989;28;20743;-85
2021/05/30 09:45:36;;;;;;;1.27;1.20;;;;;;;;;;5014267;28;20870;-86
2021/05/30 09:48:14;;;;;;;1.15;1.15;;;;;;;;;;5013131;28;20409;-85
2021/05/30 09:51:06;;;;;;;3.70;1.15;;;;;;;;;;5017931;28;20470;-85
2021/05/30 09:53:51;;;;;;;1.30;1.20;;;;;;;;;;5014657;28;20895;-85
2021/05/30 09:56:30;;;;;;;1.20;1.10;;;;;;;;;;5013561;28;20976;-85
2021/05/30 09:58:58;;;;;;;1.17;1.10;;;;;;;;;;5013759;28;20433;-86
2021/05/30 10:01:25;;;;;;;1.38;1.20;;;;;;;;;;5014010;28;20420;-86
2021/05/30 10:03:53;;;;;;;2.40;1.40;;;;;;;;;;5015088;28;20866;-85
2021/05/30 10:06:19;;;;;;;1.60;1.13;;;;;;;;;;5018820;28;20410;-84
2021/05/30 10:08:46;;;;;;;1.92;1.30;;;;;;;;;;5018935;28;20394;-84
2021/05/30 10:11:14;;;;;;;1.27;1.20;;;;;;;;;;5017983;28;20957;-84
2021/05/30 10:13:41;;;;;;;2.30;1.20;;;;;;;;;;5019961;28;20885;-84
2021/05/30 10:16:09;;;;;;;1.40;1.30;;;;;;;;;;5020251;28;20421;-84
2021/05/30 10:18:44;;;;;;;1.25;1.15;;;;;;;;;;5019412;28;20767;-84
2021/05/30 10:21:16;;;;;;;1.40;1.30;;;;;;;;;;5018868;28;20811;-86
2021/05/30 10:23:50;;;;;;;1.67;1.40;;;;;;;;;;5015731;28;20409;-86
2021/05/30 10:26:18;;;;;;;1.08;1.08;;;;;;;;;;5019616;28;20415;-85
2021/05/30 10:28:51;;;;;;;1.60;1.20;;;;;;;;;;5017206;28;20421;-86
2021/05/30 10:31:21;;;;;;;1.60;1.50;;;;;;;;;;5018376;28;20412;-85
2021/05/30 10:34:12;;;;;;;1.40;1.30;;;;;;;;;;5017552;28;20413;-86
2021/05/30 10:36:39;;;;;;;1.98;1.50;;;;;;;;;;5015479;28;20468;-85
2021/05/30 10:42:26;;;;;;;2.30;1.38;;;;;;;;;;4997312;28;20420;-83
2021/05/30 10:45:07;;;;;;;1.83;1.35;;;;;;;;;;5014877;28;20422;-83
2021/05/30 10:48:16;;;;;;;1.40;1.30;;;;;;;;;;5014311;28;20413;-83
2021/05/30 10:50:53;;;;;;;2.53;1.35;;;;;;;;;;5017088;28;20442;-83
2021/05/30 10:53:40;;;;;;;2.72;1.40;;;;;;;;;;5015776;28;21030;-85
2021/05/30 10:56:30;;;;;;;1.60;1.50;;;;;;;;;;5017391;28;20421;-82
2021/05/30 10:59:22;;;;;;;1.58;1.40;;;;;;;;;;5018959;28;20414;-81
2021/05/30 11:01:51;;;;;;;1.50;1.40;;;;;;;;;;5018247;28;20901;-81
2021/05/30 11:04:32;;;;;;;1.30;1.20;;;;;;;;;;5018645;28;20425;-82
2021/05/30 11:07:01;;;;;;;1.50;1.40;;;;;;;;;;5014913;28;20409;-82
2021/05/30 11:10:03;;;;;;;2.00;1.80;;;;;;;;;;5014047;28;20413;-83
2021/05/30 11:12:31;;;;;;;2.08;1.33;;;;;;;;;;5017024;28;20405;-82
2021/05/30 11:15:21;;;;;;;1.85;1.40;;;;;;;;;;5012970;28;20414;-82
2021/05/30 11:17:50;;;;;;;1.48;1.30;;;;;;;;;;5012591;28;20401;-83
2021/05/30 11:20:19;;;;;;;2.38;1.42;;;;;;;;;;5013071;28;20407;-82
2021/05/30 11:22:48;;;;;;;1.70;1.60;;;;;;;;;;5011842;28;20409;-83
2021/05/30 11:25:17;;;;;;;1.58;1.48;;;;;;;;;;5009795;28;20981;-83
2021/05/30 11:31:01;;;;;;;3.30;1.48;;;;;;;;;;4991269;28;20443;-84
2021/05/30 11:33:41;;;;;;;1.98;1.20;;;;;;;;;;5018465;28;20418;-84
2021/05/30 11:36:20;;;;;;;1.70;1.60;;;;;;;;;;5015976;28;20425;-81
2021/05/30 11:38:51;;;;;;;1.58;1.48;;;;;;;;;;5011552;28;20856;-82
2021/05/30 11:41:21;;;;;;;1.80;1.42;;;;;;;;;;5016445;28;20412;-83
2021/05/30 11:44:11;;;;;;;1.52;1.40;;;;;;;;;;5013885;28;20412;-84
2021/05/30 11:46:44;;;;;;;2.08;1.50;;;;;;;;;;5012263;28;20501;-85
2021/05/30 11:49:15;;;;;;;1.50;1.30;;;;;;;;;;5017658;28;20490;-85
2021/05/30 11:51:57;;;;;;;1.50;1.40;;;;;;;;;;5019855;28;20420;-85
2021/05/30 11:54:25;;;;;;;1.77;1.65;;;;;;;;;;5020249;28;20755;-85
2021/05/30 11:56:54;;;;;;;1.55;1.40;;;;;;;;;;5018255;28;20461;-85
2021/05/30 11:59:43;;;;;;;2.00;1.50;;;;;;;;;;5019551;28;20409;-85
2021/05/30 12:02:11;;;;;;;2.05;1.30;;;;;;;;;;5011307;28;20818;-85
2021/05/30 12:04:40;;;;;;;1.50;1.40;;;;;;;;;;5016592;28;20673;-84
2021/05/30 12:07:10;;;;;;;1.40;1.30;;;;;;;;;;5017690;28;20801;-84
2021/05/30 12:09:49;;;;;;;1.48;1.15;;;;;;;;;;5016586;28;20449;-85
2021/05/30 12:12:29;;;;;;;1.80;1.48;;;;;;;;;;5014317;28;20454;-84
2021/05/30 12:15:04;;;;;;;1.42;1.33;;;;;;;;;;5015783;28;20401;-83
2021/05/30 12:17:30;;;;;;;2.10;1.20;;;;;;;;;;5014588;28;20472;-85
2021/05/30 12:19:59;;;;;;;1.35;1.25;;;;;;;;;;5015642;28;20405;-85
2021/05/30 12:22:27;;;;;;;1.92;1.52;;;;;;;;;;5014190;28;20416;-84
2021/05/30 12:24:54;;;;;;;1.30;1.20;;;;;;;;;;5016085;28;20759;-85
2021/05/30 12:27:22;;;;;;;1.38;1.20;;;;;;;;;;5016744;28;20402;-85
2021/05/30 12:29:49;;;;;;;1.38;1.27;;;;;;;;;;5013572;28;20729;-85
2021/05/30 12:32:16;;;;;;;2.15;1.25;;;;;;;;;;5016766;28;20746;-85
2021/05/30 12:34:43;;;;;;;1.50;1.40;;;;;;;;;;5018960;28;20421;-86
2021/05/30 12:37:11;;;;;;;2.20;1.50;;;;;;;;;;5009377;28;20437;-86
2021/05/30 12:39:38;;;;;;;1.80;1.37;;;;;;;;;;5016536;28;20455;-85
2021/05/30 12:42:06;;;;;;;1.50;1.40;;;;;;;;;;5018833;28;20412;-85
2021/05/30 12:44:38;;;;;;;1.40;1.30;;;;;;;;;;5010871;28;20509;-85
2021/05/30 12:47:07;;;;;;;1.42;1.30;;;;;;;;;;5011692;28;20429;-85
2021/05/30 12:49:34;;;;;;;2.90;1.48;;;;;;;;;;5009074;28;20678;-85
2021/05/30 12:52:03;;;;;;;1.30;1.20;;;;;;;;;;5013955;28;20760;-85
2021/05/30 12:54:32;;;;;;;1.42;1.20;;;;;;;;;;5013040;28;20410;-85
2021/05/30 12:56:59;;;;;;;1.25;1.20;;;;;;;;;;5013920;28;20430;-84
2021/05/30 12:59:28;;;;;;;1.42;1.20;;;;;;;;;;5016669;28;20405;-84
2021/05/30 13:01:56;;;;;;;1.13;1.02;;;;;;;;;;5018105;28;20421;-85
2021/05/30 13:04:34;;;;;;;1.13;1.02;;;;;;;;;;5020514;28;20409;-81
2021/05/30 13:07:07;;;;;;;1.10;1.00;;;;;;;;;;5019254;28;20463;-86
2021/05/30 13:09:49;;;;;;;1.20;1.02;;;;;;;;;;5023671;28;20409;-86
2021/05/30 13:12:32;;;;;;;1.20;1.10;;;;;;;;;;5021511;28;20409;-88
2021/05/30 13:15:16;;;;;;;1.15;1.05;;;;;;;;;;5020338;28;20413;-87
2021/05/30 13:17:44;;;;;;;1.20;1.10;;;;;;;;;;5021864;28;20401;-87
2021/05/30 13:20:14;;;;;;;1.60;1.13;;;;;;;;;;5022768;28;20824;-82
2021/05/30 13:22:55;;;;;;;1.23;1.13;;;;;;;;;;5021259;28;20973;-84
2021/05/30 13:25:32;;;;;;;1.20;1.10;;;;;;;;;;5021737;28;20416;-84
2021/05/30 13:28:12;;;;;;;1.13;1.08;;;;;;;;;;5022273;28;20406;-84
2021/05/30 13:30:39;;;;;;;2.08;1.10;;;;;;;;;;5021987;28;20962;-85
2021/05/30 13:33:06;;;;;;;1.55;1.10;;;;;;;;;;5022329;28;20878;-85
2021/05/30 13:35:32;;;;;;;1.08;1.00;;;;;;;;;;5021780;28;21063;-84
2021/05/30 13:37:58;;;;;;;1.55;1.00;;;;;;;;;;5017586;28;20894;-86
2021/05/30 13:40:25;;;;;;;3.90;1.20;;;;;;;;;;5020700;28;20409;-85
2021/05/30 13:42:52;;;;;;;1.03;1.00;;;;;;;;;;5020321;28;20433;-85
2021/05/30 13:45:19;;;;;;;2.22;1.02;;;;;;;;;;5018692;28;20786;-86
2021/05/30 13:47:45;;;;;;;1.20;1.10;;;;;;;;;;5018329;28;20880;-86
2021/05/30 13:50:12;;;;;;;1.90;1.20;;;;;;;;;;5013473;28;20412;-85
2021/05/30 13:52:38;;;;;;;1.13;1.02;;;;;;;;;;5019556;28;20405;-84
2021/05/30 13:55:06;;;;;;;0.90;0.90;;;;;;;;;;5018291;28;20401;-85
2021/05/30 13:57:33;;;;;;;1.30;0.90;;;;;;;;;;5019004;28;20925;-85
2021/05/30 14:00:00;;;;;;;1.65;0.90;;;;;;;;;;5017566;28;20532;-85
2021/05/30 14:02:27;;;;;;;1.30;0.90;;;;;;;;;;5017671;28;20465;-85
2021/05/30 14:04:53;;;;;;;1.38;1.02;;;;;;;;;;5017822;28;20424;-85
2021/05/30 14:07:21;;;;;;;1.10;1.00;;;;;;;;;;5018144;28;20401;-81
2021/05/30 14:09:47;;;;;;;1.10;1.00;;;;;;;;;;5018140;28;20463;-85
2021/05/30 14:12:14;;;;;;;1.40;1.00;;;;;;;;;;5022333;28;20467;-84
2021/05/30 14:14:41;;;;;;;1.15;1.00;;;;;;;;;;5019422;28;20902;-85
2021/05/30 14:17:09;;;;;;;1.00;1.00;;;;;;;;;;5020371;28;20416;-84
2021/05/30 14:19:35;;;;;;;1.20;1.10;;;;;;;;;;5021445;28;20382;-85
2021/05/30 14:22:01;;;;;;;0.80;0.80;;;;;;;;;;5040387;28;20453;-85
2021/05/30 14:24:28;;;;;;;1.80;1.00;;;;;;;;;;5039239;28;20626;-85
2021/05/30 14:26:55;;;;;;;1.00;0.93;;;;;;;;;;5039144;28;21022;-85
2021/05/30 14:29:22;;;;;;;1.98;1.20;;;;;;;;;;5024497;28;20393;-84
2021/05/30 14:31:48;;;;;;;1.30;1.20;;;;;;;;;;5017114;28;20413;-85
2021/05/30 14:34:15;;;;;;;1.55;1.10;;;;;;;;;;5006892;28;20415;-85
2021/05/30 14:36:42;;;;;;;1.27;1.10;;;;;;;;;;5014131;28;20429;-85
2021/05/30 14:39:08;;;;;;;1.10;0.90;;;;;;;;;;5017100;28;20930;-84
2021/05/30 14:41:35;;;;;;;0.95;0.95;;;;;;;;;;5013283;28;20410;-84
2021/05/30 14:44:02;;;;;;;0.98;0.95;;;;;;;;;;5009449;28;20413;-86
2021/05/30 14:46:31;;;;;;;1.15;0.98;;;;;;;;;;5012218;28;20412;-86
2021/05/30 14:48:57;;;;;;;2.85;0.90;;;;;;;;;;5014230;28;20523;-85
2021/05/30 14:51:25;;;;;;;1.13;0.90;;;;;;;;;;5013217;28;20869;-83
2021/05/30 14:53:51;;;;;;;0.95;0.88;;;;;;;;;;5013817;28;20728;-84
2021/05/30 14:56:18;;;;;;;1.00;0.90;;;;;;;;;;5015564;28;20422;-84
2021/05/30 14:58:44;;;;;;;1.10;0.90;;;;;;;;;;5014007;28;20527;-85
2021/05/30 15:01:11;;;;;;;1.60;1.00;;;;;;;;;;5009400;28;20491;-84
2021/05/30 15:03:37;;;;;;;1.20;1.10;;;;;;;;;;5014125;28;20897;-85
2021/05/30 15:06:04;;;;;;;1.83;1.02;;;;;;;;;;5011810;28;20416;-85
2021/05/30 15:08:32;;;;;;;1.02;0.93;;;;;;;;;;5014386;28;20411;-84
2021/05/30 15:11:00;;;;;;;1.00;0.90;;;;;;;;;;5012745;28;20402;-85
2021/05/30 15:13:29;;;;;;;0.90;0.90;;;;;;;;;;5012413;28;20452;-85